createdAt,value
2023-03-22T00:00:09.145Z,7.79
2023-03-22T00:01:49.603Z,7.79
2023-03-22T00:03:30.064Z,7.75
2023-03-22T00:05:10.406Z,7.75
2023-03-22T00:06:50.837Z,7.73
2023-03-22T00:08:31.230Z,7.67
2023-03-22T00:10:11.736Z,7.69
2023-03-22T00:11:52.127Z,7.7
2023-03-22T00:13:33.897Z,7.69
2023-03-22T00:15:12.856Z,7.69
2023-03-22T00:16:53.270Z,7.69
2023-03-22T00:18:33.615Z,7.67
2023-03-22T00:20:14.070Z,7.69
2023-03-22T00:21:54.487Z,7.69
2023-03-22T00:23:34.907Z,7.72
2023-03-22T00:25:15.433Z,7.7
2023-03-22T00:26:55.706Z,7.72
2023-03-22T00:28:36.164Z,7.69
2023-03-22T00:30:16.608Z,7.67
2023-03-22T00:31:56.921Z,7.69
2023-03-22T00:33:37.418Z,7.7
2023-03-22T00:35:17.844Z,7.67
2023-03-22T00:36:58.188Z,7.66
2023-03-22T00:38:43.429Z,7.66
2023-03-22T00:40:18.966Z,7.62
2023-03-22T00:41:59.335Z,7.67
2023-03-22T00:43:39.728Z,7.63
2023-03-22T00:45:20.069Z,7.63
2023-03-22T00:47:00.446Z,7.59
2023-03-22T00:48:40.895Z,7.56
2023-03-22T00:50:21.291Z,7.52
2023-03-22T00:52:01.721Z,7.55
2023-03-22T00:53:43.515Z,7.55
2023-03-22T00:55:22.485Z,7.51
2023-03-22T00:57:03.014Z,7.49
2023-03-22T00:58:43.433Z,7.51
2023-03-22T01:00:23.839Z,7.54
2023-03-22T01:02:04.275Z,7.54
2023-03-22T01:03:44.816Z,7.56
2023-03-22T01:05:25.133Z,7.63
2023-03-22T01:07:05.488Z,7.66
2023-03-22T01:08:45.967Z,7.65
2023-03-22T01:10:26.278Z,7.69
2023-03-22T01:12:06.640Z,7.69
2023-03-22T01:13:47.008Z,7.72
2023-03-22T01:15:27.382Z,7.7
2023-03-22T01:17:07.778Z,7.72
2023-03-22T01:18:48.244Z,7.69
2023-03-22T01:20:28.706Z,7.7
2023-03-22T01:22:09.107Z,7.72
2023-03-22T01:23:49.493Z,7.75
2023-03-22T01:25:29.936Z,7.73
2023-03-22T01:27:10.352Z,7.69
2023-03-22T01:28:50.691Z,7.67
2023-03-22T01:30:31.183Z,7.62
2023-03-22T01:32:11.560Z,7.61
2023-03-22T01:33:51.934Z,7.56
2023-03-22T01:35:32.435Z,7.54
2023-03-22T01:37:12.665Z,7.52
2023-03-22T01:38:52.995Z,7.48
2023-03-22T01:40:33.351Z,7.46
2023-03-22T01:42:13.764Z,7.41
2023-03-22T01:43:54.075Z,7.42
2023-03-22T01:45:34.472Z,7.41
2023-03-22T01:47:14.931Z,7.44
2023-03-22T01:48:55.325Z,7.44
2023-03-22T01:50:35.708Z,7.51
2023-03-22T01:52:16.148Z,7.54
2023-03-22T01:53:56.606Z,7.52
2023-03-22T01:55:37.068Z,7.54
2023-03-22T01:57:17.443Z,7.55
2023-03-22T01:58:57.852Z,7.59
2023-03-22T02:00:38.560Z,7.62
2023-03-22T02:02:18.786Z,7.62
2023-03-22T02:03:59.122Z,7.62
2023-03-22T02:05:39.533Z,7.61
2023-03-22T02:07:19.945Z,7.61
2023-03-22T02:09:00.240Z,7.62
2023-03-22T02:10:40.812Z,7.63
2023-03-22T02:12:21.047Z,7.62
2023-03-22T02:14:01.503Z,7.61
2023-03-22T02:15:41.888Z,7.58
2023-03-22T02:17:22.290Z,7.56
2023-03-22T02:19:02.761Z,7.62
2023-03-22T02:20:43.104Z,7.63
2023-03-22T02:22:23.503Z,7.61
2023-03-22T02:24:03.909Z,7.61
2023-03-22T02:25:44.309Z,7.61
2023-03-22T02:27:24.704Z,7.63
2023-03-22T02:29:05.120Z,7.65
2023-03-22T02:30:45.561Z,7.62
2023-03-22T02:32:25.978Z,7.61
2023-03-22T02:34:06.399Z,7.63
2023-03-22T02:35:46.833Z,7.66
2023-03-22T02:37:27.169Z,7.67
2023-03-22T02:39:07.563Z,7.69
2023-03-22T02:40:47.951Z,7.66
2023-03-22T02:42:28.377Z,7.67
2023-03-22T02:44:08.772Z,7.66
2023-03-22T02:45:49.210Z,7.67
2023-03-22T02:47:29.650Z,7.72
2023-03-22T02:49:10.038Z,7.7
2023-03-22T02:50:50.486Z,7.7
2023-03-22T02:52:30.774Z,7.72
2023-03-22T02:54:11.149Z,7.73
2023-03-22T02:55:51.654Z,7.75
2023-03-22T02:57:32.033Z,7.76
2023-03-22T02:59:12.453Z,7.77
2023-03-22T03:00:52.824Z,7.79
2023-03-22T03:02:33.236Z,7.82
2023-03-22T03:04:13.634Z,7.82
2023-03-22T03:05:54.056Z,7.82
2023-03-22T03:07:34.528Z,7.82
2023-03-22T03:09:14.925Z,7.82
2023-03-22T03:10:55.229Z,7.86
2023-03-22T03:12:35.603Z,7.85
2023-03-22T03:14:16.055Z,7.85
2023-03-22T03:15:56.441Z,7.87
2023-03-22T03:17:36.841Z,7.83
2023-03-22T03:19:17.284Z,7.87
2023-03-22T03:20:57.699Z,7.87
2023-03-22T03:22:38.147Z,7.9
2023-03-22T03:24:18.486Z,7.87
2023-03-22T03:25:58.865Z,7.9
2023-03-22T03:27:39.227Z,7.92
2023-03-22T03:29:19.577Z,7.93
2023-03-22T03:30:59.869Z,7.9
2023-03-22T03:32:40.303Z,7.93
2023-03-22T03:34:20.701Z,7.92
2023-03-22T03:36:01.135Z,7.94
2023-03-22T03:37:41.515Z,7.9
2023-03-22T03:39:21.840Z,7.92
2023-03-22T03:41:02.290Z,7.93
2023-03-22T03:42:42.625Z,7.93
2023-03-22T03:44:23.096Z,7.92
2023-03-22T03:46:03.786Z,7.92
2023-03-22T03:47:44.065Z,7.93
2023-03-22T03:49:24.467Z,7.96
2023-03-22T03:51:04.899Z,7.94
2023-03-22T03:52:45.334Z,7.93
2023-03-22T03:54:25.721Z,7.93
2023-03-22T03:56:06.112Z,7.94
2023-03-22T03:57:46.487Z,7.93
2023-03-22T03:59:26.904Z,7.92
2023-03-22T04:01:07.409Z,7.9
2023-03-22T04:02:47.791Z,7.9
2023-03-22T04:04:28.267Z,7.92
2023-03-22T04:06:08.544Z,7.93
2023-03-22T04:07:48.931Z,7.93
2023-03-22T04:09:29.357Z,7.93
2023-03-22T04:11:09.802Z,7.93
2023-03-22T04:12:50.187Z,7.93
2023-03-22T04:14:30.568Z,7.92
2023-03-22T04:16:11.036Z,7.92
2023-03-22T04:17:51.502Z,7.93
2023-03-22T04:19:31.858Z,7.92
2023-03-22T04:21:12.305Z,7.94
2023-03-22T04:22:52.783Z,7.92
2023-03-22T04:24:33.058Z,7.9
2023-03-22T04:26:13.500Z,7.94
2023-03-22T04:27:53.928Z,7.96
2023-03-22T04:29:34.266Z,7.94
2023-03-22T04:31:14.645Z,7.94
2023-03-22T04:32:55.003Z,7.94
2023-03-22T04:34:35.406Z,7.94
2023-03-22T04:36:15.804Z,7.96
2023-03-22T04:37:56.160Z,7.98
2023-03-22T04:39:36.575Z,7.97
2023-03-22T04:41:16.906Z,7.96
2023-03-22T04:42:57.350Z,7.96
2023-03-22T04:44:37.779Z,7.92
2023-03-22T04:46:18.192Z,7.92
2023-03-22T04:47:58.508Z,7.94
2023-03-22T04:49:38.877Z,7.94
2023-03-22T04:51:19.290Z,7.93
2023-03-22T04:52:59.733Z,7.93
2023-03-22T04:54:40.113Z,7.92
2023-03-22T04:56:20.611Z,7.93
2023-03-22T04:58:00.944Z,7.92
2023-03-22T04:59:41.395Z,7.93
2023-03-22T05:01:21.923Z,7.94
2023-03-22T05:03:02.251Z,7.9
2023-03-22T05:04:42.608Z,7.93
2023-03-22T05:06:23.006Z,7.92
2023-03-22T05:08:03.466Z,7.9
2023-03-22T05:09:43.817Z,7.93
2023-03-22T05:11:24.187Z,7.92
2023-03-22T05:13:04.578Z,7.89
2023-03-22T05:14:45.004Z,7.85
2023-03-22T05:16:25.380Z,7.82
2023-03-22T05:18:05.678Z,7.82
2023-03-22T05:19:46.037Z,7.77
2023-03-22T05:21:26.534Z,7.76
2023-03-22T05:23:07.009Z,7.7
2023-03-22T05:24:47.382Z,7.7
2023-03-22T05:26:27.697Z,7.7
2023-03-22T05:28:07.984Z,7.67
2023-03-22T05:29:48.426Z,7.67
2023-03-22T05:31:28.993Z,7.66
2023-03-22T05:33:09.381Z,7.69
2023-03-22T05:34:49.682Z,7.67
2023-03-22T05:36:30.050Z,7.69
2023-03-22T05:38:10.496Z,7.7
2023-03-22T05:39:50.836Z,7.72
2023-03-22T05:41:31.188Z,7.75
2023-03-22T05:43:11.599Z,7.7
2023-03-22T05:44:51.984Z,7.72
2023-03-22T05:46:32.480Z,7.73
2023-03-22T05:48:12.924Z,7.73
2023-03-22T05:49:53.256Z,7.75
2023-03-22T05:51:33.671Z,7.7
2023-03-22T05:53:14.157Z,7.72
2023-03-22T05:54:54.531Z,7.69
2023-03-22T05:56:34.922Z,7.72
2023-03-22T05:58:15.329Z,7.7
2023-03-22T05:59:55.707Z,7.72
2023-03-22T06:01:36.241Z,7.72
2023-03-22T06:03:17.090Z,7.73
2023-03-22T06:04:56.985Z,7.75
2023-03-22T06:06:37.396Z,7.75
2023-03-22T06:08:17.794Z,7.73
2023-03-22T06:09:58.253Z,7.75
2023-03-22T06:11:38.693Z,7.7
2023-03-22T06:13:19.092Z,7.76
2023-03-22T06:14:59.399Z,7.75
2023-03-22T06:16:39.955Z,7.77
2023-03-22T06:18:20.286Z,7.77
2023-03-22T06:20:00.599Z,7.82
2023-03-22T06:21:40.994Z,7.82
2023-03-22T06:23:21.477Z,7.83
2023-03-22T06:25:01.819Z,7.87
2023-03-22T06:26:42.186Z,7.92
2023-03-22T06:28:22.629Z,7.96
2023-03-22T06:30:03.054Z,7.97
2023-03-22T06:31:43.414Z,7.98
2023-03-22T06:33:23.876Z,7.98
2023-03-22T06:35:04.357Z,8.04
2023-03-22T06:36:44.801Z,8.03
2023-03-22T06:38:25.180Z,8.05
2023-03-22T06:40:05.576Z,8.05
2023-03-22T06:41:45.906Z,8.07
2023-03-22T06:43:26.290Z,8.13
2023-03-22T06:45:06.672Z,8.21
2023-03-22T06:46:47.080Z,8.28
2023-03-22T06:48:27.510Z,8.38
2023-03-22T06:50:07.770Z,8.44
2023-03-22T06:51:48.103Z,8.58
2023-03-22T06:53:28.429Z,8.72
2023-03-22T06:55:08.971Z,8.87
2023-03-22T06:56:49.236Z,9.07
2023-03-22T06:58:29.633Z,9.19
2023-03-22T07:00:10.002Z,9.35
2023-03-22T07:01:50.440Z,9.52
2023-03-22T07:03:30.859Z,9.68
2023-03-22T07:05:11.309Z,9.79
2023-03-22T07:06:51.689Z,9.9
2023-03-22T07:08:32.092Z,10.05
2023-03-22T07:10:12.612Z,10.24
2023-03-22T07:11:52.908Z,10.37
2023-03-22T07:13:33.267Z,10.51
2023-03-22T07:15:13.720Z,10.65
2023-03-22T07:16:54.192Z,10.78
2023-03-22T07:18:34.585Z,10.95
2023-03-22T07:20:15.003Z,11.18
2023-03-22T07:21:55.383Z,11.34
2023-03-22T07:23:35.862Z,11.44
2023-03-22T07:25:16.340Z,11.64
2023-03-22T07:26:56.792Z,11.77
2023-03-22T07:28:37.191Z,11.9
2023-03-22T07:30:17.660Z,12
2023-03-22T07:31:58.102Z,12.14
2023-03-22T07:33:38.520Z,12.15
2023-03-22T07:35:19.076Z,12.19
2023-03-22T07:36:59.298Z,12.24
2023-03-22T07:38:39.656Z,12.29
2023-03-22T07:40:20.092Z,12.35
2023-03-22T07:42:00.431Z,12.39
2023-03-22T07:43:52.767Z,12.46
2023-03-22T07:45:21.303Z,12.45
2023-03-22T07:47:01.624Z,12.29
2023-03-22T07:48:41.964Z,12.31
2023-03-22T07:50:22.415Z,12.25
2023-03-22T07:52:02.900Z,12.24
2023-03-22T07:53:43.091Z,12.24
2023-03-22T07:55:23.466Z,12.28
2023-03-22T07:57:03.879Z,12.29
2023-03-22T07:58:44.293Z,12.29
2023-03-22T08:00:24.732Z,12.36
2023-03-22T08:02:05.185Z,12.4
2023-03-22T08:03:45.500Z,12.49
2023-03-22T08:05:25.967Z,12.67
2023-03-22T08:07:06.466Z,12.75
2023-03-22T08:08:46.851Z,12.84
2023-03-22T08:10:27.241Z,12.98
2023-03-22T08:12:07.718Z,13.08
2023-03-22T08:13:48.085Z,13.27
2023-03-22T08:15:28.490Z,13.25
2023-03-22T08:17:08.919Z,13.37
2023-03-22T08:18:49.363Z,13.41
2023-03-22T08:20:29.750Z,13.38
2023-03-22T08:22:10.073Z,13.39
2023-03-22T08:23:50.535Z,13.45
2023-03-22T08:25:30.890Z,13.55
2023-03-22T08:27:11.336Z,13.52
2023-03-22T08:28:51.717Z,13.63
2023-03-22T08:30:32.144Z,13.62
2023-03-22T08:32:12.651Z,13.58
2023-03-22T08:33:52.991Z,13.58
2023-03-22T08:35:33.466Z,13.56
2023-03-22T08:37:13.869Z,13.42
2023-03-22T08:38:54.314Z,13.35
2023-03-22T08:40:34.805Z,13.28
2023-03-22T08:42:15.164Z,13.22
2023-03-22T08:43:55.582Z,13.18
2023-03-22T08:45:35.951Z,13.14
2023-03-22T08:47:16.353Z,13.13
2023-03-22T08:48:56.764Z,13.19
2023-03-22T08:50:37.152Z,13.22
2023-03-22T08:52:17.550Z,13.17
2023-03-22T08:53:57.966Z,13.06
2023-03-22T08:55:38.627Z,13.1
2023-03-22T08:57:18.792Z,13.1
2023-03-22T08:58:59.191Z,13.08
2023-03-22T09:00:48.555Z,13.14
2023-03-22T09:02:20.064Z,13.27
2023-03-22T09:04:00.538Z,13.41
2023-03-22T09:05:41.268Z,13.35
2023-03-22T09:07:21.321Z,13.42
2023-03-22T09:09:01.653Z,13.56
2023-03-22T09:10:42.024Z,13.58
2023-03-22T09:12:22.489Z,13.62
2023-03-22T09:14:02.968Z,13.65
2023-03-22T09:15:43.887Z,13.7
2023-03-22T09:17:23.737Z,13.7
2023-03-22T09:19:04.054Z,13.75
2023-03-22T09:20:44.393Z,13.73
2023-03-22T09:22:24.884Z,13.68
2023-03-22T09:24:05.328Z,13.84
2023-03-22T09:25:45.703Z,13.82
2023-03-22T09:27:26.105Z,13.89
2023-03-22T09:29:06.514Z,13.94
2023-03-22T09:30:47.033Z,14.16
2023-03-22T09:32:27.369Z,14.23
2023-03-22T09:34:07.763Z,14.32
2023-03-22T09:35:48.211Z,14.41
2023-03-22T09:37:28.577Z,14.41
2023-03-22T09:39:09.060Z,14.38
2023-03-22T09:40:49.376Z,14.31
2023-03-22T09:42:29.832Z,14.34
2023-03-22T09:44:10.205Z,14.25
2023-03-22T09:45:50.690Z,14.23
2023-03-22T09:47:43.922Z,14.21
2023-03-22T09:49:11.544Z,14.14
2023-03-22T09:50:51.933Z,14.13
2023-03-22T09:52:32.444Z,14.09
2023-03-22T09:54:12.800Z,14.07
2023-03-22T09:55:53.172Z,14.11
2023-03-22T09:57:33.506Z,14.16
2023-03-22T09:59:13.894Z,14.28
2023-03-22T10:00:54.353Z,14.41
2023-03-22T10:02:34.796Z,14.61
2023-03-22T10:04:15.110Z,14.72
2023-03-22T10:05:55.568Z,14.68
2023-03-22T10:07:35.982Z,14.59
2023-03-22T10:09:16.524Z,14.71
2023-03-22T10:10:56.879Z,14.71
2023-03-22T10:12:37.269Z,14.83
2023-03-22T10:14:17.634Z,14.83
2023-03-22T10:15:58.023Z,14.83
2023-03-22T10:17:38.432Z,15.09
2023-03-22T10:19:18.850Z,14.93
2023-03-22T10:20:59.307Z,15.11
2023-03-22T10:22:39.654Z,15.33
2023-03-22T10:24:20.143Z,15.3
2023-03-22T10:26:00.420Z,15.85
2023-03-22T10:27:40.826Z,15.84
2023-03-22T10:29:21.240Z,15.88
2023-03-22T10:31:03.210Z,16.08
2023-03-22T10:32:56.417Z,16.27
2023-03-22T10:34:22.380Z,16.05
2023-03-22T10:36:02.927Z,15.95
2023-03-22T10:37:43.215Z,15.62
2023-03-22T10:39:23.619Z,15.54
2023-03-22T10:41:04.087Z,15.8
2023-03-22T10:42:44.425Z,15.77
2023-03-22T10:44:24.850Z,15.91
2023-03-22T10:46:05.314Z,16.12
2023-03-22T10:47:45.704Z,16.13
2023-03-22T10:49:26.079Z,16.05
2023-03-22T10:51:06.556Z,16.12
2023-03-22T10:52:46.858Z,15.81
2023-03-22T10:54:27.220Z,15.68
2023-03-22T10:56:07.624Z,15.58
2023-03-22T10:57:47.996Z,15.43
2023-03-22T10:59:28.492Z,15.37
2023-03-22T11:01:09.104Z,15.29
2023-03-22T11:02:49.459Z,15.27
2023-03-22T11:04:29.805Z,15.27
2023-03-22T11:06:10.263Z,15.2
2023-03-22T11:07:50.737Z,15.31
2023-03-22T11:09:31.044Z,15.6
2023-03-22T11:11:11.485Z,15.77
2023-03-22T11:12:51.905Z,15.89
2023-03-22T11:14:32.370Z,15.65
2023-03-22T11:16:12.835Z,15.8
2023-03-22T11:17:53.276Z,15.68
2023-03-22T11:19:33.646Z,15.65
2023-03-22T11:21:14.006Z,15.77
2023-03-22T11:22:54.470Z,15.88
2023-03-22T11:24:34.877Z,15.86
2023-03-22T11:26:15.354Z,15.94
2023-03-22T11:27:55.759Z,16.11
2023-03-22T11:29:36.185Z,16.09
2023-03-22T11:31:16.612Z,16.3
2023-03-22T11:32:57.002Z,16.44
2023-03-22T11:34:37.419Z,16.46
2023-03-22T11:36:17.757Z,16.36
2023-03-22T11:37:58.113Z,16.13
2023-03-22T11:39:38.510Z,16.09
2023-03-22T11:41:18.855Z,16.17
2023-03-22T11:42:59.297Z,16.46
2023-03-22T11:44:39.714Z,16.68
2023-03-22T11:46:20.220Z,16.92
2023-03-22T11:48:00.717Z,17.21
2023-03-22T11:49:41.049Z,17.48
2023-03-22T11:51:21.489Z,17.38
2023-03-22T11:53:01.905Z,17.11
2023-03-22T11:54:42.550Z,17.08
2023-03-22T11:56:22.806Z,16.88
2023-03-22T11:58:03.305Z,16.88
2023-03-22T11:59:43.625Z,16.9
2023-03-22T12:01:24.049Z,16.9
2023-03-22T12:03:04.534Z,16.59
2023-03-22T12:04:44.901Z,16.42
2023-03-22T12:06:25.290Z,16.34
2023-03-22T12:08:05.634Z,16.23
2023-03-22T12:09:46.020Z,16.12
2023-03-22T12:11:26.411Z,16.08
2023-03-22T12:13:06.859Z,16.02
2023-03-22T12:14:47.364Z,16.3
2023-03-22T12:16:27.934Z,16.43
2023-03-22T12:18:08.545Z,16.49
2023-03-22T12:19:48.577Z,16.66
2023-03-22T12:21:29.021Z,16.7
2023-03-22T12:23:09.348Z,16.52
2023-03-22T12:24:49.707Z,16.39
2023-03-22T12:26:30.157Z,16.46
2023-03-22T12:28:10.557Z,16.52
2023-03-22T12:29:50.911Z,16.53
2023-03-22T12:31:31.431Z,16.43
2023-03-22T12:33:11.733Z,16.36
2023-03-22T12:34:55.140Z,16.2
2023-03-22T12:36:32.536Z,16.11
2023-03-22T12:38:12.920Z,16.04
2023-03-22T12:39:53.349Z,15.94
2023-03-22T12:41:33.846Z,15.95
2023-03-22T12:43:14.125Z,15.91
2023-03-22T12:45:04.631Z,15.85
2023-03-22T12:46:34.987Z,15.86
2023-03-22T12:48:15.428Z,15.82
2023-03-22T12:49:55.772Z,15.78
2023-03-22T12:51:36.096Z,15.78
2023-03-22T12:53:16.502Z,15.84
2023-03-22T12:54:56.855Z,15.86
2023-03-22T12:56:37.235Z,15.89
2023-03-22T12:58:17.615Z,15.91
2023-03-22T12:59:58.037Z,15.88
2023-03-22T13:01:38.539Z,15.78
2023-03-22T13:03:19.127Z,15.8
2023-03-22T13:04:59.360Z,15.82
2023-03-22T13:06:39.692Z,15.77
2023-03-22T13:08:20.101Z,15.82
2023-03-22T13:10:00.532Z,15.88
2023-03-22T13:11:40.953Z,15.86
2023-03-22T13:13:21.364Z,15.86
2023-03-22T13:15:01.771Z,15.99
2023-03-22T13:16:42.174Z,15.94
2023-03-22T13:18:22.485Z,15.98
2023-03-22T13:20:02.890Z,16.01
2023-03-22T13:21:43.262Z,16.01
2023-03-22T13:23:23.738Z,16.05
2023-03-22T13:25:04.136Z,16.12
2023-03-22T13:26:44.510Z,16.12
2023-03-22T13:28:24.940Z,16.11
2023-03-22T13:30:05.324Z,16.11
2023-03-22T13:31:45.730Z,16.15
2023-03-22T13:33:26.089Z,16.19
2023-03-22T13:35:06.472Z,16.39
2023-03-22T13:36:46.915Z,16.63
2023-03-22T13:38:27.443Z,16.77
2023-03-22T13:40:07.797Z,16.82
2023-03-22T13:41:48.142Z,16.9
2023-03-22T13:43:28.523Z,17.02
2023-03-22T13:45:08.910Z,17.01
2023-03-22T13:46:49.283Z,16.91
2023-03-22T13:48:29.973Z,16.85
2023-03-22T13:50:10.104Z,16.84
2023-03-22T13:51:50.471Z,16.94
2023-03-22T13:53:30.896Z,16.96
2023-03-22T13:55:11.354Z,16.98
2023-03-22T13:56:51.774Z,17
2023-03-22T13:58:32.188Z,16.88
2023-03-22T14:00:14.970Z,16.91
2023-03-22T14:01:52.996Z,16.82
2023-03-22T14:03:33.498Z,16.77
2023-03-22T14:05:13.828Z,16.61
2023-03-22T14:06:54.141Z,16.57
2023-03-22T14:08:34.549Z,16.44
2023-03-22T14:10:14.871Z,16.4
2023-03-22T14:11:57.014Z,16.32
2023-03-22T14:13:35.653Z,16.26
2023-03-22T14:15:16.161Z,16.22
2023-03-22T14:16:56.593Z,16.08
2023-03-22T14:18:37.037Z,15.99
2023-03-22T14:20:17.406Z,15.82
2023-03-22T14:52:05.274Z,13.93
2023-03-22T14:53:45.629Z,13.9
2023-03-22T14:55:26.085Z,13.87
2023-03-22T14:57:06.474Z,13.89
2023-03-22T14:58:46.887Z,13.92
2023-03-22T15:00:27.332Z,13.92
2023-03-22T15:02:07.774Z,13.97
2023-03-22T15:03:48.147Z,13.94
2023-03-22T15:05:28.561Z,13.94
2023-03-22T15:07:08.958Z,13.97
2023-03-22T15:08:49.295Z,13.96
2023-03-22T15:10:29.717Z,13.97
2023-03-22T15:12:10.049Z,14
2023-03-22T15:13:50.441Z,14.02
2023-03-22T15:15:30.843Z,14.03
2023-03-22T15:17:11.257Z,14.06
2023-03-22T15:18:51.581Z,14.07
2023-03-22T15:20:31.916Z,14.11
2023-03-22T15:22:12.324Z,14.11
2023-03-22T15:23:52.766Z,14.14
2023-03-22T15:25:33.219Z,14.11
2023-03-22T15:27:13.509Z,14.11
2023-03-22T15:28:53.800Z,14.14
2023-03-22T15:30:34.194Z,14.14
2023-03-22T15:32:14.575Z,14.14
2023-03-22T15:33:54.977Z,14.13
2023-03-22T15:35:35.464Z,14.16
2023-03-22T15:37:15.817Z,14.17
2023-03-22T15:38:56.233Z,14.19
2023-03-22T15:40:36.602Z,14.21
2023-03-22T15:42:17.041Z,14.21
2023-03-22T15:43:57.451Z,14.21
2023-03-22T15:45:37.974Z,14.2
2023-03-22T15:47:18.272Z,14.17
2023-03-22T15:48:58.666Z,14.19
2023-03-22T15:50:39.046Z,14.14
2023-03-22T15:52:19.455Z,14.16
2023-03-22T15:53:59.951Z,14.11
2023-03-22T15:55:40.476Z,14.14
2023-03-22T15:57:20.750Z,14.11
2023-03-22T15:59:01.188Z,14.11
2023-03-22T16:00:41.653Z,14.13
2023-03-22T16:02:22.075Z,14.14
2023-03-22T16:04:02.597Z,14.17
2023-03-22T16:05:43.086Z,14.16
2023-03-22T16:07:23.421Z,14.16
2023-03-22T16:09:04.398Z,14.21
2023-03-22T16:10:44.245Z,14.28
2023-03-22T16:12:24.697Z,14.28
2023-03-22T16:14:05.072Z,14.31
2023-03-22T16:15:45.394Z,14.34
2023-03-22T16:17:25.818Z,14.37
2023-03-22T16:19:06.151Z,14.38
2023-03-22T16:20:46.619Z,14.38
2023-03-22T16:22:26.988Z,14.37
2023-03-22T16:24:07.410Z,14.38
2023-03-22T16:25:47.780Z,14.37
2023-03-22T16:27:28.156Z,14.35
2023-03-22T16:29:08.574Z,14.34
2023-03-22T16:30:48.993Z,14.35
2023-03-22T16:32:29.377Z,14.37
2023-03-22T16:34:09.765Z,14.34
2023-03-22T16:35:50.209Z,14.32
2023-03-22T16:37:30.521Z,14.32
2023-03-22T16:39:10.909Z,14.28
2023-03-22T16:40:51.283Z,14.32
2023-03-22T16:42:33.043Z,14.31
2023-03-22T16:44:12.033Z,14.3
2023-03-22T16:45:52.484Z,14.24
2023-03-22T16:47:32.796Z,14.21
2023-03-22T16:49:13.160Z,14.21
2023-03-22T16:50:53.568Z,14.23
2023-03-22T16:52:34.000Z,14.17
2023-03-22T16:54:14.430Z,14.16
2023-03-22T16:55:54.809Z,14.16
2023-03-22T16:57:35.209Z,14.17
2023-03-22T16:59:15.701Z,14.2
2023-03-22T17:00:56.173Z,14.17
2023-03-22T17:02:39.733Z,14.16
2023-03-22T17:04:17.096Z,14.13
2023-03-22T17:05:57.518Z,14.11
2023-03-22T17:07:37.964Z,14.13
2023-03-22T17:09:18.324Z,14.07
2023-03-22T17:10:58.770Z,14.04
2023-03-22T17:12:39.132Z,14.02
2023-03-22T17:14:19.545Z,13.99
2023-03-22T17:16:00.005Z,13.94
2023-03-22T17:17:40.338Z,13.94
2023-03-22T17:19:20.756Z,13.9
2023-03-22T17:21:01.174Z,13.86
2023-03-22T17:22:41.626Z,13.82
2023-03-22T17:24:22.138Z,13.79
2023-03-22T17:26:02.544Z,13.77
2023-03-22T17:27:42.947Z,13.7
2023-03-22T17:29:23.427Z,13.69
2023-03-22T17:31:03.875Z,13.63
2023-03-22T17:32:59.328Z,13.59
2023-03-22T17:34:24.574Z,13.56
2023-03-22T17:36:04.914Z,13.58
2023-03-22T17:37:45.281Z,13.54
2023-03-22T17:39:48.307Z,13.52
2023-03-22T17:41:06.245Z,13.46
2023-03-22T17:42:46.384Z,13.46
2023-03-22T17:44:26.794Z,13.51
2023-03-22T17:46:49.746Z,13.52
2023-03-22T17:47:49.322Z,13.52
2023-03-22T17:49:27.845Z,13.52
2023-03-22T17:51:08.321Z,13.56
2023-03-22T17:52:49.059Z,13.56
2023-03-22T17:56:44.110Z,13.59
2023-03-22T17:58:15.186Z,13.59
2023-03-22T17:59:30.102Z,13.62
2023-03-22T18:01:10.560Z,13.59
2023-03-22T18:02:51.034Z,13.61
2023-03-22T18:04:31.306Z,13.62
2023-03-22T18:06:11.653Z,13.63
2023-03-22T18:08:10.369Z,13.61
2023-03-22T18:09:32.358Z,13.55
2023-03-22T18:11:12.688Z,13.52
2023-03-22T18:12:53.077Z,13.51
2023-03-22T18:16:13.957Z,13.42
2023-03-22T18:17:54.174Z,13.39
2023-03-22T18:19:34.668Z,13.44
2023-03-22T18:21:15.059Z,13.44
2023-03-22T18:22:55.497Z,13.44
2023-03-22T18:24:35.862Z,13.45
2023-03-22T18:26:25.679Z,13.44
2023-03-22T18:27:56.671Z,13.44
2023-03-22T18:29:36.985Z,13.45
2023-03-22T18:31:17.365Z,13.38
2023-03-22T18:33:05.882Z,13.37
2023-03-22T18:34:38.137Z,13.34
2023-03-22T18:36:18.595Z,13.35
2023-03-22T18:37:58.949Z,13.31
2023-03-22T18:40:22.857Z,13.31
2023-03-22T18:41:34.732Z,13.33
2023-03-22T18:43:00.153Z,13.28
2023-03-22T18:44:40.497Z,13.22
2023-03-22T18:46:21.024Z,13.18
2023-03-22T18:48:01.266Z,13.15
2023-03-22T18:49:41.650Z,13.08
2023-03-22T18:51:22.076Z,13.01
2023-03-22T18:53:17.836Z,12.98
2023-03-22T18:54:43.926Z,12.94
2023-03-22T18:56:23.224Z,12.84
2023-03-22T18:58:03.628Z,12.86
2023-03-22T18:59:44.035Z,12.83
2023-03-22T19:01:24.704Z,12.83
2023-03-22T19:03:04.782Z,12.72
2023-03-22T19:04:45.114Z,12.7
2023-03-22T19:06:25.520Z,12.7
2023-03-22T19:09:46.372Z,12.69
2023-03-22T19:11:26.820Z,12.62
2023-03-22T19:13:07.191Z,12.63
2023-03-22T19:16:28.071Z,12.6
2023-03-22T19:18:08.362Z,12.57
2023-03-22T19:19:48.723Z,12.59
2023-03-22T19:21:32.228Z,12.52
2023-03-22T19:23:09.446Z,12.46
2023-03-22T19:24:49.860Z,12.42
2023-03-22T19:26:30.550Z,12.48
2023-03-22T19:28:10.651Z,12.45
2023-03-22T19:29:51.015Z,12.35
2023-03-22T19:31:31.437Z,12.31
2023-03-22T19:33:30.805Z,12.29
2023-03-22T19:34:53.664Z,12.27
2023-03-22T19:36:32.564Z,12.24
2023-03-22T19:38:12.944Z,12.28
2023-03-22T19:40:38.730Z,12.28
2023-03-22T19:43:14.124Z,12.27
2023-03-22T19:44:55.208Z,12.21
2023-03-22T19:46:34.822Z,12.24
2023-03-22T19:48:15.282Z,12.24
2023-03-22T19:49:55.650Z,12.31
2023-03-22T19:51:35.938Z,12.32
2023-03-22T19:53:51.754Z,12.39
2023-03-22T19:54:56.696Z,12.39
2023-03-22T19:56:37.140Z,12.32
2023-03-22T19:58:17.509Z,12.29
2023-03-22T20:00:36.407Z,12.31
2023-03-22T20:01:38.275Z,12.38
2023-03-22T20:03:18.722Z,12.35
2023-03-22T20:05:05.152Z,12.31
2023-03-22T20:06:39.514Z,12.31
2023-03-22T20:08:19.847Z,12.25
2023-03-22T20:10:00.352Z,12.25
2023-03-22T20:11:43.695Z,12.33
2023-03-22T20:13:21.134Z,12.36
2023-03-22T20:15:01.485Z,12.35
2023-03-22T20:16:41.876Z,12.35
2023-03-22T20:18:22.185Z,12.32
2023-03-22T20:20:03.752Z,12.33
2023-03-22T20:21:42.825Z,12.35
2023-03-22T20:23:23.239Z,12.4
2023-03-22T20:25:03.677Z,12.38
2023-03-22T20:26:44.104Z,12.39
2023-03-22T20:28:24.417Z,12.39
2023-03-22T20:30:04.822Z,12.36
2023-03-22T20:31:45.153Z,12.35
2023-03-22T20:33:25.585Z,12.32
2023-03-22T20:35:05.957Z,12.29
2023-03-22T20:36:46.257Z,12.29
2023-03-22T20:38:26.687Z,12.32
2023-03-22T20:40:06.993Z,12.29
2023-03-22T20:41:47.435Z,12.29
2023-03-22T20:43:27.814Z,12.27
2023-03-22T20:45:08.225Z,12.28
2023-03-22T20:46:48.583Z,12.22
2023-03-22T20:48:32.037Z,12.21
2023-03-22T20:50:09.373Z,12.19
2023-03-22T20:51:49.788Z,12.17
2023-03-22T20:53:30.216Z,12.14
2023-03-22T20:55:10.627Z,12.21
2023-03-22T20:56:51.059Z,12.21
2023-03-22T20:58:31.466Z,12.21
2023-03-22T21:00:11.959Z,12.19
2023-03-22T21:01:52.331Z,12.15
2023-03-22T21:03:32.808Z,12.17
2023-03-22T21:05:13.149Z,12.19
2023-03-22T21:06:53.526Z,12.24
2023-03-22T21:08:33.889Z,12.21
2023-03-22T21:10:14.353Z,12.19
2023-03-22T21:11:54.721Z,12.25
2023-03-22T21:13:35.167Z,12.25
2023-03-22T21:15:15.633Z,12.29
2023-03-22T21:16:56.131Z,12.27
2023-03-22T21:18:36.478Z,12.36
2023-03-22T21:20:27.157Z,12.42
2023-03-22T21:22:00.148Z,12.46
2023-03-22T21:23:37.745Z,12.49
2023-03-22T21:25:18.162Z,12.49
2023-03-22T21:26:58.566Z,12.52
2023-03-22T21:28:38.983Z,12.53
2023-03-22T21:30:19.412Z,12.6
2023-03-22T21:31:59.763Z,12.56
2023-03-22T21:33:40.162Z,12.56
2023-03-22T21:35:20.583Z,12.62
2023-03-22T21:37:00.927Z,12.59
2023-03-22T21:38:41.380Z,12.63
2023-03-22T21:40:21.767Z,12.64
2023-03-22T21:42:02.223Z,12.69
2023-03-22T21:43:42.614Z,12.66
2023-03-22T21:45:23.022Z,12.64
2023-03-22T21:47:03.391Z,12.63
2023-03-22T21:48:43.757Z,12.69
2023-03-22T21:50:24.138Z,12.64
2023-03-22T21:52:04.504Z,12.64
2023-03-22T21:53:44.899Z,12.67
2023-03-22T21:55:25.276Z,12.66
2023-03-22T21:57:05.623Z,12.69
2023-03-22T21:58:45.968Z,12.75
2023-03-22T22:00:26.362Z,12.75
2023-03-22T22:02:06.836Z,12.73
2023-03-22T22:03:47.253Z,12.76
2023-03-22T22:05:27.640Z,12.8
2023-03-22T22:07:08.022Z,12.8
2023-03-22T22:08:48.463Z,12.84
2023-03-22T22:10:28.784Z,12.83
2023-03-22T22:12:09.233Z,12.87
2023-03-22T22:13:49.585Z,12.91
2023-03-22T22:15:29.983Z,12.87
2023-03-22T22:17:10.384Z,12.91
2023-03-22T22:18:50.852Z,12.88
2023-03-22T22:20:31.260Z,12.86
2023-03-22T22:22:11.732Z,12.84
2023-03-22T22:23:52.163Z,12.86
2023-03-22T22:25:32.572Z,12.84
2023-03-22T22:27:12.967Z,12.86
2023-03-22T22:28:53.301Z,12.82